Accueil
METAR-TAF:

METAR-TAF

Aéroports :

Aéroport de Burgos

Burgos, Espagne

latitude: 42-22N, longitude: 003-38W, altitude: 894 m

Observation

Le bulletin a été fait il y a 36 minutes, à 19:30 UTC
Vent 3 kt de est/sud-est
Température 10°C
Humidité 87%
Pression 1022 hPa
Visibilité 10 km ou plus
Nuages fragmentés à une hauteur de 4900 ft
Ciel couvert à une hauteur de 5600 ft

METAR: LEBG 061930Z AUTO 12003KT 9999 BKN049 OVC056 10/08 Q1022

Heure: 22:06 (20:06 UTC)

Prévision

Le bulletin a été fait il y a 3 heures et 6 minutes, à 17:00 UTC
Prévision valable du 06 à 18 UTC au 07 à 03 UTC
Vent 5 kt de direction variable
Visibilité 10 km ou plus
Nuages fragmentés à une hauteur de 3000 ft
Probabilité 40% :
Temporairement
du 06 à 18 UTC au 06 à 21 UTC
Visibilité: 3000 m
Nuages épars à une hauteur de 3000 ft, Cumulus congestus.
pluie, averses de pluie

TAF: LEBG 061700Z 0618/0703 VRB05KT 9999 BKN030 PROB40 TEMPO 0618/0621 3000 RA SHRA SCT030TCU

Observations et prévisions météorologiques de plus de 4000 aéroports (messages METAR et TAF).

Les stations disponibles sont représentées par des disques jaunes et rouges sur la carte.

Passer la souris dessus pour voir le nom de la station.

Cliquer dessus pour voir les observations et prévisions météorologiques.

Pour changer de carte: cliquez sur les boutons verts avec une croix noire pour zoomer, sur le bouton vert avec un tiret pour effectuer un zoom arrière, ou sur les flèches vertes pour les cartes adjacentes.


METAR-TAF: